sensor_id;sensor_type;location;lat;lon;timestamp;P1;durP1;ratioP1;P2;durP2;ratioP2
9964;SDS011;5023;53.554;9.964;2023-01-19T00:01:01;17.50;;;12.53;;
9964;SDS011;5023;53.554;9.964;2023-01-19T00:06:03;18.13;;;12.13;;
9964;SDS011;5023;53.554;9.964;2023-01-19T00:11:07;15.63;;;12.00;;
9964;SDS011;5023;53.554;9.964;2023-01-19T00:16:09;16.17;;;12.27;;
9964;SDS011;5023;53.554;9.964;2023-01-19T00:21:11;15.07;;;10.97;;
9964;SDS011;5023;53.554;9.964;2023-01-19T00:26:16;15.63;;;12.10;;
9964;SDS011;5023;53.554;9.964;2023-01-19T00:31:18;16.40;;;12.33;;
9964;SDS011;5023;53.554;9.964;2023-01-19T00:36:20;16.47;;;12.53;;
9964;SDS011;5023;53.554;9.964;2023-01-19T00:41:25;14.63;;;11.43;;
9964;SDS011;5023;53.554;9.964;2023-01-19T00:46:41;16.10;;;12.97;;
9964;SDS011;5023;53.554;9.964;2023-01-19T00:51:43;15.50;;;12.23;;
9964;SDS011;5023;53.554;9.964;2023-01-19T00:56:47;14.40;;;12.10;;
9964;SDS011;5023;53.554;9.964;2023-01-19T01:01:50;14.33;;;11.53;;
9964;SDS011;5023;53.554;9.964;2023-01-19T01:06:51;14.17;;;11.87;;
9964;SDS011;5023;53.554;9.964;2023-01-19T01:11:55;17.80;;;12.03;;
9964;SDS011;5023;53.554;9.964;2023-01-19T01:16:57;15.40;;;12.03;;
9964;SDS011;5023;53.554;9.964;2023-01-19T01:21:59;15.97;;;12.63;;
9964;SDS011;5023;53.554;9.964;2023-01-19T01:27:03;16.17;;;12.53;;
9964;SDS011;5023;53.554;9.964;2023-01-19T01:32:05;14.87;;;12.43;;
9964;SDS011;5023;53.554;9.964;2023-01-19T01:37:09;16.40;;;12.27;;
9964;SDS011;5023;53.554;9.964;2023-01-19T01:42:14;15.77;;;11.80;;
9964;SDS011;5023;53.554;9.964;2023-01-19T01:47:20;15.53;;;12.00;;
9964;SDS011;5023;53.554;9.964;2023-01-19T01:52:27;15.17;;;12.23;;
9964;SDS011;5023;53.554;9.964;2023-01-19T01:57:33;13.90;;;11.80;;
9964;SDS011;5023;53.554;9.964;2023-01-19T02:02:37;14.50;;;11.20;;
9964;SDS011;5023;53.554;9.964;2023-01-19T02:07:56;14.27;;;11.77;;
9964;SDS011;5023;53.554;9.964;2023-01-19T02:13:22;14.97;;;11.80;;
9964;SDS011;5023;53.554;9.964;2023-01-19T02:18:26;15.40;;;11.77;;
9964;SDS011;5023;53.554;9.964;2023-01-19T02:23:32;14.13;;;11.73;;
9964;SDS011;5023;53.554;9.964;2023-01-19T02:28:40;16.40;;;11.73;;
9964;SDS011;5023;53.554;9.964;2023-01-19T02:33:45;16.20;;;12.70;;
9964;SDS011;5023;53.554;9.964;2023-01-19T02:38:49;18.40;;;12.10;;
9964;SDS011;5023;53.554;9.964;2023-01-19T02:43:55;14.57;;;11.67;;
9964;SDS011;5023;53.554;9.964;2023-01-19T02:48:59;17.33;;;12.50;;
9964;SDS011;5023;53.554;9.964;2023-01-19T02:54:07;13.80;;;11.60;;
9964;SDS011;5023;53.554;9.964;2023-01-19T02:59:26;14.77;;;11.07;;
9964;SDS011;5023;53.554;9.964;2023-01-19T03:04:39;15.87;;;11.90;;
9964;SDS011;5023;53.554;9.964;2023-01-19T03:09:56;16.60;;;11.93;;
9964;SDS011;5023;53.554;9.964;2023-01-19T03:15:05;13.17;;;11.73;;
9964;SDS011;5023;53.554;9.964;2023-01-19T03:20:15;18.60;;;13.57;;
9964;SDS011;5023;53.554;9.964;2023-01-19T03:25:23;15.33;;;12.00;;
9964;SDS011;5023;53.554;9.964;2023-01-19T03:30:28;13.20;;;11.53;;
9964;SDS011;5023;53.554;9.964;2023-01-19T03:35:35;15.93;;;12.23;;
9964;SDS011;5023;53.554;9.964;2023-01-19T03:40:43;17.00;;;12.13;;
9964;SDS011;5023;53.554;9.964;2023-01-19T03:45:46;15.37;;;12.33;;
9964;SDS011;5023;53.554;9.964;2023-01-19T03:50:49;15.20;;;11.93;;
9964;SDS011;5023;53.554;9.964;2023-01-19T03:55:54;15.60;;;12.47;;
9964;SDS011;5023;53.554;9.964;2023-01-19T04:00:56;15.43;;;12.83;;
9964;SDS011;5023;53.554;9.964;2023-01-19T04:05:58;18.17;;;13.23;;
9964;SDS011;5023;53.554;9.964;2023-01-19T04:11:02;17.20;;;12.60;;
9964;SDS011;5023;53.554;9.964;2023-01-19T04:16:05;14.60;;;12.60;;
9964;SDS011;5023;53.554;9.964;2023-01-19T04:21:10;15.97;;;13.23;;
9964;SDS011;5023;53.554;9.964;2023-01-19T04:26:13;15.83;;;13.57;;
9964;SDS011;5023;53.554;9.964;2023-01-19T04:31:16;17.30;;;13.90;;
9964;SDS011;5023;53.554;9.964;2023-01-19T04:36:19;22.40;;;16.27;;
9964;SDS011;5023;53.554;9.964;2023-01-19T04:41:22;17.57;;;13.83;;
9964;SDS011;5023;53.554;9.964;2023-01-19T04:46:24;19.07;;;14.53;;
9964;SDS011;5023;53.554;9.964;2023-01-19T04:51:28;16.83;;;13.63;;
9964;SDS011;5023;53.554;9.964;2023-01-19T04:56:33;20.50;;;16.40;;
9964;SDS011;5023;53.554;9.964;2023-01-19T05:01:35;15.90;;;14.07;;
9964;SDS011;5023;53.554;9.964;2023-01-19T05:06:37;18.77;;;14.57;;
9964;SDS011;5023;53.554;9.964;2023-01-19T05:11:42;20.00;;;14.33;;
9964;SDS011;5023;53.554;9.964;2023-01-19T05:16:44;16.73;;;14.30;;
9964;SDS011;5023;53.554;9.964;2023-01-19T05:21:46;16.97;;;14.07;;
9964;SDS011;5023;53.554;9.964;2023-01-19T05:26:49;16.50;;;13.83;;
9964;SDS011;5023;53.554;9.964;2023-01-19T05:31:52;17.80;;;14.37;;
9964;SDS011;5023;53.554;9.964;2023-01-19T05:36:54;19.83;;;15.30;;
9964;SDS011;5023;53.554;9.964;2023-01-19T05:41:58;18.93;;;15.50;;
9964;SDS011;5023;53.554;9.964;2023-01-19T05:47:00;17.27;;;15.47;;
9964;SDS011;5023;53.554;9.964;2023-01-19T05:52:02;19.00;;;15.60;;
9964;SDS011;5023;53.554;9.964;2023-01-19T05:57:05;19.33;;;16.27;;
9964;SDS011;5023;53.554;9.964;2023-01-19T06:02:08;21.07;;;15.90;;
9964;SDS011;5023;53.554;9.964;2023-01-19T06:07:10;20.20;;;16.00;;
9964;SDS011;5023;53.554;9.964;2023-01-19T06:12:13;18.67;;;16.20;;
9964;SDS011;5023;53.554;9.964;2023-01-19T06:17:16;19.87;;;16.40;;
9964;SDS011;5023;53.554;9.964;2023-01-19T06:22:18;19.23;;;15.93;;
9964;SDS011;5023;53.554;9.964;2023-01-19T06:27:21;20.00;;;16.27;;
9964;SDS011;5023;53.554;9.964;2023-01-19T06:32:23;18.33;;;15.83;;
9964;SDS011;5023;53.554;9.964;2023-01-19T06:37:25;15.80;;;14.10;;
9964;SDS011;5023;53.554;9.964;2023-01-19T06:42:31;16.97;;;15.17;;
9964;SDS011;5023;53.554;9.964;2023-01-19T06:47:33;18.50;;;15.40;;
9964;SDS011;5023;53.554;9.964;2023-01-19T06:52:36;16.60;;;14.90;;
9964;SDS011;5023;53.554;9.964;2023-01-19T06:57:42;16.70;;;14.87;;
9964;SDS011;5023;53.554;9.964;2023-01-19T07:02:45;17.70;;;15.37;;
9964;SDS011;5023;53.554;9.964;2023-01-19T07:07:50;18.53;;;15.73;;
9964;SDS011;5023;53.554;9.964;2023-01-19T07:12:53;18.23;;;15.17;;
9964;SDS011;5023;53.554;9.964;2023-01-19T07:17:57;17.50;;;15.70;;
9964;SDS011;5023;53.554;9.964;2023-01-19T07:23:00;18.47;;;15.57;;
9964;SDS011;5023;53.554;9.964;2023-01-19T07:28:04;20.33;;;16.83;;
9964;SDS011;5023;53.554;9.964;2023-01-19T07:33:06;20.60;;;16.73;;
9964;SDS011;5023;53.554;9.964;2023-01-19T07:38:08;21.63;;;17.00;;
9964;SDS011;5023;53.554;9.964;2023-01-19T07:43:13;20.10;;;16.93;;
9964;SDS011;5023;53.554;9.964;2023-01-19T07:48:15;24.27;;;17.67;;
9964;SDS011;5023;53.554;9.964;2023-01-19T07:53:17;24.53;;;18.77;;
9964;SDS011;5023;53.554;9.964;2023-01-19T07:58:20;25.53;;;18.37;;
9964;SDS011;5023;53.554;9.964;2023-01-19T08:03:22;21.57;;;18.10;;
9964;SDS011;5023;53.554;9.964;2023-01-19T08:08:28;24.90;;;18.50;;
9964;SDS011;5023;53.554;9.964;2023-01-19T08:13:31;23.00;;;18.00;;
9964;SDS011;5023;53.554;9.964;2023-01-19T08:18:33;19.33;;;16.23;;
9964;SDS011;5023;53.554;9.964;2023-01-19T08:23:35;20.67;;;17.17;;
9964;SDS011;5023;53.554;9.964;2023-01-19T08:28:39;20.13;;;16.17;;
9964;SDS011;5023;53.554;9.964;2023-01-19T08:33:41;21.00;;;16.00;;
9964;SDS011;5023;53.554;9.964;2023-01-19T08:38:43;18.50;;;16.50;;
9964;SDS011;5023;53.554;9.964;2023-01-19T08:43:46;20.40;;;15.90;;
9964;SDS011;5023;53.554;9.964;2023-01-19T08:48:48;19.13;;;15.13;;
9964;SDS011;5023;53.554;9.964;2023-01-19T08:53:52;19.23;;;16.27;;
9964;SDS011;5023;53.554;9.964;2023-01-19T08:58:58;28.90;;;22.37;;
9964;SDS011;5023;53.554;9.964;2023-01-19T09:04:04;52.57;;;35.13;;
9964;SDS011;5023;53.554;9.964;2023-01-19T09:09:06;29.07;;;20.97;;
9964;SDS011;5023;53.554;9.964;2023-01-19T09:14:11;21.83;;;17.60;;
9964;SDS011;5023;53.554;9.964;2023-01-19T09:19:14;18.30;;;15.43;;
9964;SDS011;5023;53.554;9.964;2023-01-19T09:24:16;19.50;;;16.57;;
9964;SDS011;5023;53.554;9.964;2023-01-19T09:29:21;18.83;;;15.97;;
9964;SDS011;5023;53.554;9.964;2023-01-19T09:34:25;20.57;;;16.30;;
9964;SDS011;5023;53.554;9.964;2023-01-19T09:39:27;19.57;;;16.03;;
9964;SDS011;5023;53.554;9.964;2023-01-19T09:44:31;22.47;;;16.83;;
9964;SDS011;5023;53.554;9.964;2023-01-19T09:49:38;21.67;;;16.60;;
9964;SDS011;5023;53.554;9.964;2023-01-19T09:54:42;19.10;;;16.40;;
9964;SDS011;5023;53.554;9.964;2023-01-19T09:59:53;20.17;;;17.00;;
9964;SDS011;5023;53.554;9.964;2023-01-19T10:04:59;19.47;;;16.67;;
9964;SDS011;5023;53.554;9.964;2023-01-19T10:10:04;19.10;;;15.53;;
9964;SDS011;5023;53.554;9.964;2023-01-19T10:15:16;18.13;;;15.80;;
9964;SDS011;5023;53.554;9.964;2023-01-19T10:20:27;16.97;;;14.87;;
9964;SDS011;5023;53.554;9.964;2023-01-19T10:25:33;16.23;;;13.87;;
9964;SDS011;5023;53.554;9.964;2023-01-19T10:30:36;16.67;;;14.00;;
9964;SDS011;5023;53.554;9.964;2023-01-19T10:35:41;15.87;;;14.17;;
9964;SDS011;5023;53.554;9.964;2023-01-19T10:40:45;17.37;;;14.83;;
9964;SDS011;5023;53.554;9.964;2023-01-19T10:45:55;17.93;;;14.30;;
9964;SDS011;5023;53.554;9.964;2023-01-19T10:51:00;18.13;;;14.83;;
9964;SDS011;5023;53.554;9.964;2023-01-19T10:56:14;16.07;;;13.90;;
9964;SDS011;5023;53.554;9.964;2023-01-19T11:01:19;17.50;;;14.10;;
9964;SDS011;5023;53.554;9.964;2023-01-19T11:06:26;17.47;;;14.33;;
9964;SDS011;5023;53.554;9.964;2023-01-19T11:11:30;18.67;;;15.23;;
9964;SDS011;5023;53.554;9.964;2023-01-19T11:16:46;19.17;;;15.30;;
9964;SDS011;5023;53.554;9.964;2023-01-19T11:22:07;18.10;;;14.50;;
9964;SDS011;5023;53.554;9.964;2023-01-19T11:27:20;17.77;;;14.83;;
9964;SDS011;5023;53.554;9.964;2023-01-19T11:32:25;17.30;;;14.87;;
9964;SDS011;5023;53.554;9.964;2023-01-19T11:37:29;17.17;;;14.40;;
9964;SDS011;5023;53.554;9.964;2023-01-19T11:42:33;18.50;;;15.57;;
9964;SDS011;5023;53.554;9.964;2023-01-19T11:47:40;21.37;;;17.93;;
9964;SDS011;5023;53.554;9.964;2023-01-19T11:52:44;17.37;;;13.90;;
9964;SDS011;5023;53.554;9.964;2023-01-19T11:57:52;17.77;;;14.80;;
9964;SDS011;5023;53.554;9.964;2023-01-19T12:02:58;19.13;;;15.23;;
9964;SDS011;5023;53.554;9.964;2023-01-19T12:08:09;22.60;;;17.87;;
9964;SDS011;5023;53.554;9.964;2023-01-19T12:13:19;18.00;;;14.90;;
9964;SDS011;5023;53.554;9.964;2023-01-19T12:18:24;19.90;;;15.50;;
9964;SDS011;5023;53.554;9.964;2023-01-19T12:23:32;20.43;;;14.53;;
9964;SDS011;5023;53.554;9.964;2023-01-19T12:28:46;19.10;;;14.03;;
9964;SDS011;5023;53.554;9.964;2023-01-19T12:33:53;15.90;;;13.60;;
9964;SDS011;5023;53.554;9.964;2023-01-19T12:38:55;17.30;;;13.30;;
9964;SDS011;5023;53.554;9.964;2023-01-19T12:44:21;14.17;;;12.63;;
9964;SDS011;5023;53.554;9.964;2023-01-19T12:49:28;17.97;;;14.17;;
9964;SDS011;5023;53.554;9.964;2023-01-19T12:54:33;22.73;;;17.83;;
9964;SDS011;5023;53.554;9.964;2023-01-19T12:59:35;15.17;;;12.47;;
9964;SDS011;5023;53.554;9.964;2023-01-19T13:04:40;16.30;;;13.07;;
9964;SDS011;5023;53.554;9.964;2023-01-19T13:21:51;15.53;;;12.80;;
9964;SDS011;5023;53.554;9.964;2023-01-19T13:26:54;16.13;;;12.70;;
9964;SDS011;5023;53.554;9.964;2023-01-19T13:32:04;12.43;;;11.00;;
9964;SDS011;5023;53.554;9.964;2023-01-19T13:37:15;13.47;;;11.87;;
9964;SDS011;5023;53.554;9.964;2023-01-19T13:42:22;13.77;;;11.30;;
9964;SDS011;5023;53.554;9.964;2023-01-19T13:47:32;14.87;;;11.17;;
9964;SDS011;5023;53.554;9.964;2023-01-19T13:52:42;46.23;;;31.00;;
9964;SDS011;5023;53.554;9.964;2023-01-19T13:57:45;14.83;;;11.47;;
9964;SDS011;5023;53.554;9.964;2023-01-19T14:02:54;13.80;;;10.77;;
9964;SDS011;5023;53.554;9.964;2023-01-19T14:07:59;14.27;;;11.30;;
9964;SDS011;5023;53.554;9.964;2023-01-19T14:13:03;14.23;;;10.33;;
9964;SDS011;5023;53.554;9.964;2023-01-19T14:18:24;14.43;;;10.50;;
9964;SDS011;5023;53.554;9.964;2023-01-19T14:23:36;12.70;;;9.33;;
9964;SDS011;5023;53.554;9.964;2023-01-19T14:28:43;11.97;;;9.20;;
9964;SDS011;5023;53.554;9.964;2023-01-19T14:33:47;12.20;;;10.13;;
9964;SDS011;5023;53.554;9.964;2023-01-19T14:38:52;17.97;;;11.07;;
9964;SDS011;5023;53.554;9.964;2023-01-19T14:43:56;12.87;;;9.43;;
9964;SDS011;5023;53.554;9.964;2023-01-19T14:49:03;14.03;;;9.40;;
9964;SDS011;5023;53.554;9.964;2023-01-19T14:54:10;12.47;;;9.50;;
9964;SDS011;5023;53.554;9.964;2023-01-19T14:59:18;12.90;;;10.40;;
9964;SDS011;5023;53.554;9.964;2023-01-19T15:04:21;11.77;;;9.07;;
9964;SDS011;5023;53.554;9.964;2023-01-19T15:09:25;13.10;;;8.90;;
9964;SDS011;5023;53.554;9.964;2023-01-19T15:14:27;10.10;;;8.50;;
9964;SDS011;5023;53.554;9.964;2023-01-19T15:19:31;11.20;;;8.17;;
9964;SDS011;5023;53.554;9.964;2023-01-19T15:24:34;11.53;;;9.03;;
9964;SDS011;5023;53.554;9.964;2023-01-19T15:29:36;9.83;;;7.93;;
9964;SDS011;5023;53.554;9.964;2023-01-19T15:34:42;13.27;;;9.33;;
9964;SDS011;5023;53.554;9.964;2023-01-19T15:39:44;21.33;;;12.97;;
9964;SDS011;5023;53.554;9.964;2023-01-19T15:44:47;12.07;;;7.60;;
9964;SDS011;5023;53.554;9.964;2023-01-19T15:49:51;30.63;;;20.10;;
9964;SDS011;5023;53.554;9.964;2023-01-19T15:54:53;10.17;;;7.23;;
9964;SDS011;5023;53.554;9.964;2023-01-19T15:59:55;11.70;;;8.43;;
9964;SDS011;5023;53.554;9.964;2023-01-19T16:04:59;12.53;;;8.03;;
9964;SDS011;5023;53.554;9.964;2023-01-19T16:10:01;9.03;;;7.50;;
9964;SDS011;5023;53.554;9.964;2023-01-19T16:15:05;18.57;;;10.50;;
9964;SDS011;5023;53.554;9.964;2023-01-19T16:20:12;10.20;;;7.43;;
9964;SDS011;5023;53.554;9.964;2023-01-19T16:25:20;11.47;;;7.07;;
9964;SDS011;5023;53.554;9.964;2023-01-19T16:30:22;10.37;;;6.47;;
9964;SDS011;5023;53.554;9.964;2023-01-19T16:35:28;11.03;;;6.30;;
9964;SDS011;5023;53.554;9.964;2023-01-19T16:40:30;10.63;;;7.57;;
9964;SDS011;5023;53.554;9.964;2023-01-19T16:45:32;9.13;;;6.33;;
9964;SDS011;5023;53.554;9.964;2023-01-19T16:50:36;10.43;;;6.57;;
9964;SDS011;5023;53.554;9.964;2023-01-19T16:55:39;10.83;;;6.50;;
9964;SDS011;5023;53.554;9.964;2023-01-19T17:00:41;10.03;;;5.83;;
9964;SDS011;5023;53.554;9.964;2023-01-19T17:05:48;10.97;;;6.10;;
9964;SDS011;5023;53.554;9.964;2023-01-19T17:10:51;9.67;;;6.27;;
9964;SDS011;5023;53.554;9.964;2023-01-19T17:15:57;14.50;;;7.30;;
9964;SDS011;5023;53.554;9.964;2023-01-19T17:21:02;7.93;;;5.20;;
9964;SDS011;5023;53.554;9.964;2023-01-19T17:26:06;7.60;;;4.43;;
9964;SDS011;5023;53.554;9.964;2023-01-19T17:31:09;8.97;;;5.13;;
9964;SDS011;5023;53.554;9.964;2023-01-19T17:36:14;8.43;;;3.90;;
9964;SDS011;5023;53.554;9.964;2023-01-19T17:41:20;6.40;;;3.70;;
9964;SDS011;5023;53.554;9.964;2023-01-19T17:46:23;8.40;;;4.43;;
9964;SDS011;5023;53.554;9.964;2023-01-19T17:51:28;10.43;;;5.33;;
9964;SDS011;5023;53.554;9.964;2023-01-19T17:56:30;10.87;;;5.40;;
9964;SDS011;5023;53.554;9.964;2023-01-19T18:01:37;12.43;;;6.00;;
9964;SDS011;5023;53.554;9.964;2023-01-19T18:06:41;6.40;;;3.23;;
9964;SDS011;5023;53.554;9.964;2023-01-19T18:11:44;7.43;;;3.80;;
9964;SDS011;5023;53.554;9.964;2023-01-19T18:16:46;13.43;;;5.00;;
9964;SDS011;5023;53.554;9.964;2023-01-19T18:21:52;9.03;;;3.40;;
9964;SDS011;5023;53.554;9.964;2023-01-19T18:26:54;10.23;;;3.70;;
9964;SDS011;5023;53.554;9.964;2023-01-19T18:31:56;9.20;;;3.70;;
9964;SDS011;5023;53.554;9.964;2023-01-19T18:36:59;4.97;;;3.17;;
9964;SDS011;5023;53.554;9.964;2023-01-19T18:42:17;10.70;;;4.00;;
9964;SDS011;5023;53.554;9.964;2023-01-19T18:47:20;13.23;;;4.87;;
9964;SDS011;5023;53.554;9.964;2023-01-19T18:52:23;12.70;;;3.97;;
9964;SDS011;5023;53.554;9.964;2023-01-19T18:57:27;7.67;;;3.43;;
9964;SDS011;5023;53.554;9.964;2023-01-19T19:02:29;8.77;;;4.17;;
9964;SDS011;5023;53.554;9.964;2023-01-19T19:07:33;4.87;;;2.47;;
9964;SDS011;5023;53.554;9.964;2023-01-19T19:12:36;6.60;;;2.97;;
9964;SDS011;5023;53.554;9.964;2023-01-19T19:17:38;8.17;;;3.97;;
9964;SDS011;5023;53.554;9.964;2023-01-19T19:22:42;7.70;;;3.37;;
9964;SDS011;5023;53.554;9.964;2023-01-19T19:27:48;6.03;;;2.90;;
9964;SDS011;5023;53.554;9.964;2023-01-19T19:32:53;10.03;;;4.33;;
9964;SDS011;5023;53.554;9.964;2023-01-19T19:38:00;4.73;;;2.63;;
9964;SDS011;5023;53.554;9.964;2023-01-19T19:43:02;7.90;;;3.73;;
9964;SDS011;5023;53.554;9.964;2023-01-19T19:48:04;4.97;;;2.87;;
9964;SDS011;5023;53.554;9.964;2023-01-19T19:53:08;6.67;;;2.97;;
9964;SDS011;5023;53.554;9.964;2023-01-19T19:58:10;8.73;;;6.00;;
9964;SDS011;5023;53.554;9.964;2023-01-19T20:03:12;4.73;;;2.40;;
9964;SDS011;5023;53.554;9.964;2023-01-19T20:08:15;2.83;;;2.30;;
9964;SDS011;5023;53.554;9.964;2023-01-19T20:13:17;6.47;;;2.50;;
9964;SDS011;5023;53.554;9.964;2023-01-19T20:18:21;9.57;;;3.13;;
9964;SDS011;5023;53.554;9.964;2023-01-19T20:23:25;8.57;;;2.93;;
9964;SDS011;5023;53.554;9.964;2023-01-19T20:28:27;7.77;;;3.07;;
9964;SDS011;5023;53.554;9.964;2023-01-19T20:33:37;4.40;;;2.30;;
9964;SDS011;5023;53.554;9.964;2023-01-19T20:38:42;10.13;;;2.80;;
9964;SDS011;5023;53.554;9.964;2023-01-19T20:43:44;4.57;;;2.87;;
9964;SDS011;5023;53.554;9.964;2023-01-19T20:48:54;6.33;;;2.53;;
9964;SDS011;5023;53.554;9.964;2023-01-19T20:53:58;19.70;;;10.00;;
9964;SDS011;5023;53.554;9.964;2023-01-19T20:59:00;7.70;;;3.53;;
9964;SDS011;5023;53.554;9.964;2023-01-19T21:04:02;8.83;;;3.10;;
9964;SDS011;5023;53.554;9.964;2023-01-19T21:09:06;10.70;;;2.97;;
9964;SDS011;5023;53.554;9.964;2023-01-19T21:14:09;9.47;;;4.63;;
9964;SDS011;5023;53.554;9.964;2023-01-19T21:19:11;6.20;;;2.90;;
9964;SDS011;5023;53.554;9.964;2023-01-19T21:24:14;8.33;;;2.80;;
9964;SDS011;5023;53.554;9.964;2023-01-19T21:29:17;6.03;;;3.63;;
9964;SDS011;5023;53.554;9.964;2023-01-19T21:34:19;6.23;;;2.80;;
9964;SDS011;5023;53.554;9.964;2023-01-19T21:39:22;4.53;;;2.90;;
9964;SDS011;5023;53.554;9.964;2023-01-19T21:44:25;6.57;;;3.03;;
9964;SDS011;5023;53.554;9.964;2023-01-19T21:49:30;6.57;;;3.80;;
9964;SDS011;5023;53.554;9.964;2023-01-19T21:54:33;52.33;;;41.90;;
9964;SDS011;5023;53.554;9.964;2023-01-19T21:59:38;10.27;;;7.10;;
9964;SDS011;5023;53.554;9.964;2023-01-19T22:04:40;7.50;;;3.57;;
9964;SDS011;5023;53.554;9.964;2023-01-19T22:09:45;7.23;;;3.53;;
9964;SDS011;5023;53.554;9.964;2023-01-19T22:14:49;6.63;;;3.90;;
9964;SDS011;5023;53.554;9.964;2023-01-19T22:19:52;5.53;;;3.20;;
9964;SDS011;5023;53.554;9.964;2023-01-19T22:24:57;12.70;;;4.90;;
9964;SDS011;5023;53.554;9.964;2023-01-19T22:29:59;9.33;;;3.90;;
9964;SDS011;5023;53.554;9.964;2023-01-19T22:35:01;12.43;;;4.33;;
9964;SDS011;5023;53.554;9.964;2023-01-19T22:40:05;8.00;;;4.07;;
9964;SDS011;5023;53.554;9.964;2023-01-19T22:45:09;10.90;;;4.23;;
9964;SDS011;5023;53.554;9.964;2023-01-19T22:50:11;11.03;;;5.83;;
9964;SDS011;5023;53.554;9.964;2023-01-19T22:55:16;9.60;;;6.30;;
9964;SDS011;5023;53.554;9.964;2023-01-19T23:00:19;7.77;;;3.80;;
9964;SDS011;5023;53.554;9.964;2023-01-19T23:05:22;8.33;;;4.00;;
9964;SDS011;5023;53.554;9.964;2023-01-19T23:10:25;11.07;;;4.40;;
9964;SDS011;5023;53.554;9.964;2023-01-19T23:15:28;6.70;;;4.27;;
9964;SDS011;5023;53.554;9.964;2023-01-19T23:20:32;11.30;;;4.43;;
9964;SDS011;5023;53.554;9.964;2023-01-19T23:25:36;9.83;;;4.30;;
9964;SDS011;5023;53.554;9.964;2023-01-19T23:30:38;5.73;;;3.80;;
9964;SDS011;5023;53.554;9.964;2023-01-19T23:35:40;10.23;;;4.13;;
9964;SDS011;5023;53.554;9.964;2023-01-19T23:40:44;7.40;;;4.00;;
9964;SDS011;5023;53.554;9.964;2023-01-19T23:45:46;8.23;;;4.03;;
9964;SDS011;5023;53.554;9.964;2023-01-19T23:50:48;7.30;;;4.90;;
9964;SDS011;5023;53.554;9.964;2023-01-19T23:55:52;10.33;;;4.60;;
